Time;durP1;ratioP1;P1;durP2;ratioP2;P2;SDS_P1;SDS_P2;PMS_P1;PMS_P2;Temp;Humidity;BMP_temperature;BMP_pressure;BME280_temperature;BME280_humidity;BME280_pressure;Samples;Min_cycle;Max_cycle;Signal;HPM_P1;HPM_P2
2021/03/02 00:00:50;;;;;;;70.33;35.37;;;;;;;2.29;80.55;100414.35;508315;1098;104664;-42
2021/03/02 00:10:54;;;;;;;90.33;41.93;;;;;;;2.47;80.67;100399.70;508228;1099;104502;-41
2021/03/02 00:20:58;;;;;;;110.60;47.70;;;;;;;2.40;80.91;100393.38;508066;1099;104731;-41
2021/03/02 00:31:05;;;;;;;78.03;36.50;;;;;;;2.22;80.73;100387.97;507981;1099;104687;-42
2021/03/02 00:41:09;;;;;;;76.83;38.10;;;;;;;2.42;80.78;100384.45;508075;1098;104332;-40
2021/03/02 00:51:14;;;;;;;77.37;37.37;;;;;;;2.29;80.63;100388.25;508053;1099;104910;-41
2021/03/02 01:01:19;;;;;;;130.93;56.50;;;;;;;2.23;80.79;100371.34;508424;1099;104472;-42
2021/03/02 01:11:25;;;;;;;88.13;36.30;;;;;;;1.96;80.59;100365.91;507777;1099;104853;-41
2021/03/02 01:21:30;;;;;;;74.63;38.07;;;;;;;2.02;81.16;100352.33;508063;1099;104309;-43
2021/03/02 01:31:35;;;;;;;76.83;35.07;;;;;;;1.95;80.74;100344.22;508026;1099;104601;-40
2021/03/02 01:41:43;;;;;;;82.67;38.70;;;;;;;1.96;80.88;100342.43;508051;1099;104773;-40
2021/03/02 01:51:48;;;;;;;124.70;49.87;;;;;;;1.82;80.77;100339.22;508172;1099;104358;-42
2021/03/02 02:01:54;;;;;;;77.70;35.00;;;;;;;1.72;80.68;100342.75;508151;1098;104392;-40
2021/03/02 02:22:24;;;;;;;77.03;32.67;;;;;;;1.81;81.48;100323.70;508927;1089;104341;-40
2021/03/02 02:32:31;;;;;;;92.43;39.70;;;;;;;1.91;80.88;100326.36;508054;1099;104335;-42
2021/03/02 02:42:38;;;;;;;88.90;37.70;;;;;;;1.75;81.14;100335.48;508343;1099;104319;-39
2021/03/02 02:52:43;;;;;;;76.17;33.13;;;;;;;1.51;80.70;100332.36;508195;1098;104719;-40
2021/03/02 03:02:49;;;;;;;72.93;33.87;;;;;;;1.32;80.94;100329.66;508252;1099;104332;-44
2021/03/02 03:12:56;;;;;;;72.00;32.17;;;;;;;1.40;80.90;100317.61;508445;1099;104254;-42
2021/03/02 03:23:02;;;;;;;111.20;41.23;;;;;;;1.41;81.86;100306.23;508160;1099;104332;-42
2021/03/02 03:33:09;;;;;;;81.17;33.27;;;;;;;1.61;81.83;100309.75;508271;1099;104335;-42
2021/03/02 03:43:14;;;;;;;81.67;35.60;;;;;;;1.28;81.40;100308.23;508064;1099;104251;-42
2021/03/02 03:53:22;;;;;;;73.03;32.53;;;;;;;1.19;81.42;100317.66;508303;1099;104444;-42
2021/03/02 04:03:28;;;;;;;118.43;42.93;;;;;;;1.02;81.68;100325.22;508185;1099;104601;-40
2021/03/02 04:13:34;;;;;;;95.67;36.47;;;;;;;1.18;81.65;100325.58;508219;1099;104303;-42
2021/03/02 04:23:40;;;;;;;82.67;35.33;;;;;;;1.56;81.67;100319.76;508256;1099;104326;-41
2021/03/02 04:33:44;;;;;;;82.23;34.53;;;;;;;1.80;81.95;100306.41;508101;1099;104328;-42
2021/03/02 04:43:50;;;;;;;94.20;38.90;;;;;;;1.65;81.64;100298.10;508454;1099;104261;-42
2021/03/02 04:53:54;;;;;;;75.23;33.53;;;;;;;1.35;81.27;100298.11;508092;1099;104331;-42
2021/03/02 05:03:59;;;;;;;72.90;31.43;;;;;;;1.17;81.50;100288.28;508051;1099;104329;-42
2021/03/02 05:14:04;;;;;;;101.95;41.05;;;;;;;1.34;81.83;100301.67;508153;1099;104422;-40
2021/03/02 05:24:09;;;;;;;100.47;40.03;;;;;;;1.10;81.74;100307.99;508133;1098;104680;-40
2021/03/02 05:34:14;;;;;;;84.87;33.27;;;;;;;0.91;81.32;100292.23;508264;1099;104690;-39
2021/03/02 05:44:19;;;;;;;72.40;30.90;;;;;;;0.81;81.75;100306.98;508071;1099;104598;-41
2021/03/02 05:54:25;;;;;;;77.17;30.20;;;;;;;0.89;81.68;100304.56;508142;1098;104670;-39
2021/03/02 06:04:29;;;;;;;88.50;35.30;;;;;;;0.97;81.91;100315.19;508107;1099;105950;-41
2021/03/02 06:14:35;;;;;;;106.43;40.80;;;;;;;1.09;82.15;100308.13;508068;1099;104724;-40
2021/03/02 06:24:41;;;;;;;81.83;33.80;;;;;;;1.02;81.76;100302.60;508374;1099;104329;-40
2021/03/02 06:34:50;;;;;;;90.90;34.07;;;;;;;1.11;81.88;100291.41;507851;1098;104680;-40
2021/03/02 06:44:55;;;;;;;92.37;37.77;;;;;;;1.15;81.67;100303.22;508101;1099;104297;-39
2021/03/02 06:55:00;;;;;;;76.67;30.53;;;;;;;1.18;81.97;100295.17;508349;1099;104677;-40
2021/03/02 07:05:10;;;;;;;89.05;32.65;;;;;;;1.40;82.62;100309.80;508422;1099;104328;-41
2021/03/02 07:15:17;;;;;;;67.23;27.23;;;;;;;1.77;81.87;100298.84;508308;1099;104638;-41
2021/03/02 07:25:23;;;;;;;89.25;32.25;;;;;;;1.81;81.70;100308.88;508076;1099;104316;-41
2021/03/02 07:35:28;;;;;;;116.55;54.05;;;;;;;1.81;81.37;100313.27;507998;1099;104331;-39
2021/03/02 07:45:32;;;;;;;68.53;32.23;;;;;;;2.23;82.33;100308.70;508023;1099;105830;-40
2021/03/02 07:55:37;;;;;;;63.10;27.80;;;;;;;2.58;82.07;100296.91;508371;1098;104773;-39
2021/03/02 08:05:41;;;;;;;75.40;31.43;;;;;;;2.78;81.72;100312.44;508095;1099;104389;-40
2021/03/02 08:15:44;;;;;;;71.57;32.67;;;;;;;3.04;81.69;100311.86;508101;1099;104368;-40
2021/03/02 08:26:00;;;;;;;84.80;35.57;;;;;;;3.34;81.57;100311.68;508357;1098;105387;-40
2021/03/02 08:36:06;;;;;;;;;;;;;;;3.93;81.53;100312.25;508002;1098;104708;-39
2021/03/02 08:46:22;;;;;;;59.23;28.80;;;;;;;4.53;81.73;100323.06;508397;1099;104334;-42
2021/03/02 08:56:28;;;;;;;76.63;34.20;;;;;;;4.93;81.50;100320.77;508630;1099;104698;-40
2021/03/02 09:06:34;;;;;;;69.57;33.03;;;;;;;5.91;80.96;100325.81;508675;1099;104632;-42
2021/03/02 09:16:41;;;;;;;61.37;28.47;;;;;;;6.56;80.30;100326.81;508110;1099;104332;-42
2021/03/02 09:26:52;;;;;;;55.80;26.00;;;;;;;7.14;79.72;100306.62;508067;1099;104306;-41
2021/03/02 09:37:01;;;;;;;65.33;31.27;;;;;;;7.63;78.34;100286.28;508057;1098;104692;-42
2021/03/02 09:47:06;;;;;;;62.77;28.87;;;;;;;8.16;78.28;100295.25;508065;1099;104395;-44
2021/03/02 09:57:13;;;;;;;61.13;31.80;;;;;;;8.43;76.60;100283.42;508086;1099;104332;-43
2021/03/02 10:07:18;;;;;;;62.40;26.73;;;;;;;8.71;76.96;100281.89;508165;1098;104322;-41
2021/03/02 10:17:35;;;;;;;49.53;26.27;;;;;;;9.33;75.93;100286.94;508342;1097;104373;-42
2021/03/02 10:28:00;;;;;;;59.03;27.33;;;;;;;9.48;73.75;100298.34;508126;1099;104335;-43
2021/03/02 10:38:05;;;;;;;51.67;25.47;;;;;;;9.63;71.58;100300.95;508245;1098;104351;-41
2021/03/02 10:48:10;;;;;;;51.77;24.47;;;;;;;9.67;67.22;100299.59;508064;1099;105719;-41
2021/03/02 11:08:35;;;;;;;56.90;26.67;;;;;;;9.69;65.68;100281.73;508048;1099;104469;-41
2021/03/02 11:18:42;;;;;;;52.70;25.50;;;;;;;9.94;64.92;100278.81;508363;1099;104627;-43
2021/03/02 11:28:49;;;;;;;59.65;29.35;;;;;;;10.04;66.09;100274.05;508563;1100;104300;-42
2021/03/02 11:38:54;;;;;;;57.40;29.83;;;;;;;10.12;65.82;100273.92;508825;1100;104268;-40
2021/03/02 11:48:59;;;;;;;62.43;29.10;;;;;;;10.03;65.28;100273.23;508300;1102;104348;-42
2021/03/02 11:59:04;;;;;;;60.83;30.00;;;;;;;9.98;65.69;100261.58;508704;1100;104813;-41
2021/03/02 12:09:09;;;;;;;55.63;29.17;;;;;;;9.97;64.77;100250.19;508471;1100;104258;-41
2021/03/02 12:19:13;;;;;;;54.37;26.63;;;;;;;9.98;65.09;100232.52;508482;1100;104325;-41
2021/03/02 12:29:20;;;;;;;52.80;25.50;;;;;;;9.94;64.63;100239.18;508633;1102;104622;-41
2021/03/02 12:39:25;;;;;;;45.33;23.83;;;;;;;10.08;64.71;100233.83;508732;1100;104348;-42
2021/03/02 12:49:30;;;;;;;50.00;23.80;;;;;;;10.10;64.13;100212.50;508624;1102;104304;-42
2021/03/02 12:59:34;;;;;;;47.67;23.27;;;;;;;10.25;64.17;100205.38;508556;1102;104622;-43
2021/03/02 13:19:59;;;;;;;37.97;19.37;;;;;;;10.72;60.95;100212.70;508075;1100;104323;-40
2021/03/02 13:30:08;;;;;;;41.33;18.93;;;;;;;10.67;59.84;100206.36;508230;1100;104353;-42
2021/03/02 13:40:16;;;;;;;35.70;18.77;;;;;;;10.53;59.67;100204.60;508136;1100;104335;-41
2021/03/02 13:50:21;;;;;;;37.43;19.47;;;;;;;10.54;60.45;100193.01;508071;1101;104329;-43
2021/03/02 14:00:27;;;;;;;30.53;15.13;;;;;;;10.61;58.07;100181.47;508178;1100;104636;-41
2021/03/02 14:10:32;;;;;;;32.33;14.33;;;;;;;10.53;56.02;100165.75;508248;1101;104325;-42
2021/03/02 14:20:37;;;;;;;30.30;14.10;;;;;;;10.63;56.62;100162.75;508223;1099;104684;-41
2021/03/02 14:30:41;;;;;;;19.53;10.67;;;;;;;10.66;54.92;100154.46;508100;1100;104689;-42
2021/03/02 14:40:46;;;;;;;20.87;11.17;;;;;;;10.62;54.86;100147.89;508060;1100;105794;-41
2021/03/02 14:50:53;;;;;;;21.93;11.87;;;;;;;10.57;53.30;100137.08;508223;1100;104383;-43
2021/03/02 15:01:00;;;;;;;23.60;11.90;;;;;;;10.50;55.17;100125.64;508278;1100;104329;-41
2021/03/02 15:11:05;;;;;;;20.63;12.03;;;;;;;10.37;55.73;100119.23;508643;1102;104687;-42
2021/03/02 15:21:10;;;;;;;22.80;12.90;;;;;;;10.16;55.08;100111.30;508605;1102;104790;-40
2021/03/02 15:31:19;;;;;;;24.70;12.57;;;;;;;10.02;55.48;100106.92;508505;1100;104329;-43
2021/03/02 15:41:24;;;;;;;26.85;14.05;;;;;;;9.83;56.59;100109.19;508771;1102;104331;-41
2021/03/02 15:51:33;;;;;;;28.73;16.63;;;;;;;9.60;57.12;100110.36;508828;1100;104341;-41
2021/03/02 16:01:38;;;;;;;31.48;19.02;;;;;;;9.35;58.27;100102.78;508708;1101;104380;-41
2021/03/02 16:22:08;;;;;;;35.83;18.23;;;;;;;8.69;58.74;100116.93;508505;1100;104628;-40
2021/03/02 16:32:13;;;;;;;41.67;25.63;;;;;;;8.34;59.66;100127.17;508468;1100;104628;-39
2021/03/02 16:42:22;;;;;;;77.07;34.23;;;;;;;7.96;60.63;100136.81;508405;1100;104334;-41
2021/03/02 16:52:29;;;;;;;145.97;59.77;;;;;;;7.51;61.35;100137.59;508260;1100;104299;-41
2021/03/02 17:02:33;;;;;;;68.03;30.23;;;;;;;7.16;61.59;100136.30;507923;1101;104347;-42
2021/03/02 17:12:38;;;;;;;68.10;33.07;;;;;;;6.86;62.10;100129.96;508167;1100;104348;-42
2021/03/02 17:22:43;;;;;;;76.17;36.13;;;;;;;6.64;62.07;100124.45;508029;1100;104347;-43
2021/03/02 17:32:49;;;;;;;57.13;29.23;;;;;;;6.48;63.03;100134.17;508018;1101;104332;-42
2021/03/02 17:42:54;;;;;;;119.35;49.25;;;;;;;6.35;63.66;100129.41;508084;1100;104376;-40
2021/03/02 17:52:59;;;;;;;128.00;43.40;;;;;;;6.24;63.51;100120.06;508044;1100;104700;-42
2021/03/02 18:03:05;;;;;;;326.00;93.70;;;;;;;6.30;64.09;100129.91;507908;1100;104986;-42
2021/03/02 18:13:10;;;;;;;102.93;41.53;;;;;;;6.30;64.52;100134.34;507809;1100;104635;-43
2021/03/02 18:23:15;;;;;;;122.90;67.60;;;;;;;6.14;65.27;100132.53;507856;1101;104693;-41
2021/03/02 18:33:26;;;;;;;85.93;43.30;;;;;;;5.91;65.04;100126.28;508028;1101;104332;-41
2021/03/02 18:43:33;;;;;;;126.40;51.00;;;;;;;5.65;65.64;100129.00;508075;1101;104335;-41
2021/03/02 18:53:38;;;;;;;109.10;48.37;;;;;;;5.53;66.57;100137.19;508309;1100;104386;-42
2021/03/02 19:03:51;;;;;;;85.80;41.33;;;;;;;5.48;66.49;100141.28;508329;1100;104354;-43
2021/03/02 19:13:56;;;;;;;71.87;39.67;;;;;;;5.41;66.80;100154.20;508324;1100;104310;-40
2021/03/02 19:24:01;;;;;;;82.03;43.10;;;;;;;5.33;67.41;100142.86;507984;1101;104332;-40
2021/03/02 19:34:13;;;;;;;87.47;42.30;;;;;;;5.11;68.02;100147.70;507912;1100;104770;-41
2021/03/02 19:44:18;;;;;;;98.85;45.10;;;;;;;4.80;67.65;100147.38;507923;1100;104338;-41
2021/03/02 19:54:23;;;;;;;88.67;42.47;;;;;;;4.53;68.41;100158.84;508387;1100;104674;-41
2021/03/02 20:04:36;;;;;;;61.47;29.00;;;;;;;4.34;68.40;100145.94;508061;1100;104351;-42
2021/03/02 20:25:00;;;;;;;63.60;33.65;;;;;;;4.08;69.20;100158.98;507978;1100;104332;-40
2021/03/02 20:35:08;;;;;;;126.67;50.90;;;;;;;3.72;69.68;100163.38;508091;1100;104329;-42
2021/03/02 20:45:14;;;;;;;187.20;73.13;;;;;;;3.37;69.64;100171.98;508056;1101;104306;-42
2021/03/02 20:55:20;;;;;;;184.43;75.63;;;;;;;3.25;70.13;100160.89;508172;1101;104331;-41
2021/03/02 21:05:25;;;;;;;181.70;72.53;;;;;;;3.04;70.33;100166.34;507973;1101;104261;-41
2021/03/02 21:15:30;;;;;;;159.90;70.87;;;;;;;2.97;70.80;100162.66;507951;1101;104488;-40
2021/03/02 21:25:35;;;;;;;256.07;95.50;;;;;;;2.84;70.70;100169.16;507868;1100;104389;-40
2021/03/02 21:35:40;;;;;;;202.87;85.13;;;;;;;2.62;71.14;100167.73;508043;1100;104338;-41
2021/03/02 21:45:46;;;;;;;160.90;70.40;;;;;;;2.59;71.52;100165.38;508060;1100;104334;-41
2021/03/02 21:55:52;;;;;;;161.27;69.90;;;;;;;2.42;71.53;100166.94;508253;1100;104777;-43
2021/03/02 22:16:21;;;;;;;;;;;;;;;2.15;72.22;100152.82;508007;1102;104335;-42
2021/03/02 22:26:26;;;;;;;190.47;74.63;;;;;;;2.09;72.83;100145.52;507946;1100;104316;-42
2021/03/02 22:36:31;;;;;;;233.83;89.23;;;;;;;2.05;72.49;100138.94;508049;1100;104332;-43
2021/03/02 22:46:35;;;;;;;322.60;119.40;;;;;;;1.88;72.59;100137.01;508099;1100;104810;-40
2021/03/02 22:56:41;;;;;;;316.43;116.03;;;;;;;1.79;73.03;100130.84;508039;1101;104411;-42
2021/03/02 23:06:46;;;;;;;377.73;135.43;;;;;;;1.64;73.43;100132.19;508117;1100;104341;-41
2021/03/02 23:16:51;;;;;;;257.53;92.20;;;;;;;1.66;73.69;100127.69;508031;1101;104333;-41
2021/03/02 23:26:56;;;;;;;206.27;82.13;;;;;;;1.61;73.66;100118.60;508266;1100;104322;-41
2021/03/02 23:37:08;;;;;;;189.70;78.17;;;;;;;1.59;73.82;100116.13;508110;1100;104341;-40
2021/03/02 23:47:13;;;;;;;270.50;100.77;;;;;;;1.42;73.70;100115.03;507948;1101;104283;-42
2021/03/02 23:57:32;;;;;;;201.30;78.95;;;;;;;1.41;74.14;100107.32;508149;1100;104380;-43
